createdAt,value
2017-12-22T00:02:21.632Z,2.50
2017-12-22T00:04:49.909Z,2.83
2017-12-22T00:07:18.959Z,2.30
2017-12-22T00:09:47.232Z,2.53
2017-12-22T00:12:15.488Z,3.10
2017-12-22T00:14:43.732Z,2.67
2017-12-22T00:17:11.983Z,2.47
2017-12-22T00:19:40.242Z,2.90
2017-12-22T00:22:08.504Z,3.03
2017-12-22T00:24:36.751Z,2.60
2017-12-22T00:27:05.027Z,2.90
2017-12-22T00:29:33.289Z,3.10
2017-12-22T00:32:01.581Z,2.97
2017-12-22T00:34:29.852Z,3.23
2017-12-22T00:36:58.102Z,2.93
2017-12-22T00:39:26.345Z,3.43
2017-12-22T00:41:54.621Z,3.20
2017-12-22T00:44:22.863Z,3.17
2017-12-22T00:46:51.200Z,3.63
2017-12-22T00:49:19.467Z,2.87
2017-12-22T00:51:48.889Z,3.20
2017-12-22T00:54:17.167Z,3.53
2017-12-22T00:56:46.189Z,4.50
2017-12-22T00:59:14.436Z,3.67
2017-12-22T01:01:42.691Z,3.33
2017-12-22T01:04:10.935Z,3.70
2017-12-22T01:06:39.964Z,4.30
2017-12-22T01:09:08.217Z,3.93
2017-12-22T01:11:36.514Z,3.93
2017-12-22T01:14:04.783Z,4.33
2017-12-22T01:16:38.492Z,3.67
2017-12-22T01:19:12.351Z,3.93
2017-12-22T01:21:41.387Z,3.50
2017-12-22T01:24:09.632Z,4.10
2017-12-22T01:26:37.891Z,3.83
2017-12-22T01:29:06.186Z,4.00
2017-12-22T01:31:34.466Z,3.73
2017-12-22T01:34:02.811Z,3.77
2017-12-22T01:36:31.112Z,3.77
2017-12-22T01:38:59.385Z,3.23
2017-12-22T01:41:27.707Z,3.67
2017-12-22T01:43:55.963Z,3.37
2017-12-22T01:46:25.024Z,3.90
2017-12-22T01:48:53.258Z,3.50
2017-12-22T01:51:22.279Z,3.87
2017-12-22T01:53:51.295Z,3.80
2017-12-22T01:56:19.596Z,3.37
2017-12-22T01:58:47.844Z,4.00
2017-12-22T02:01:16.856Z,4.03
2017-12-22T02:03:46.630Z,3.30
2017-12-22T02:06:14.875Z,3.87
2017-12-22T02:08:43.904Z,4.00
2017-12-22T02:11:12.148Z,3.83
2017-12-22T02:13:40.403Z,3.50
2017-12-22T02:16:08.656Z,4.00
2017-12-22T02:18:37.691Z,4.20
2017-12-22T02:21:06.009Z,4.20
2017-12-22T02:23:34.306Z,3.60
2017-12-22T02:26:02.640Z,3.23
2017-12-22T02:28:30.963Z,3.57
2017-12-22T02:30:59.241Z,3.90
2017-12-22T02:33:27.503Z,3.37
2017-12-22T02:35:56.508Z,3.27
2017-12-22T02:38:25.553Z,3.50
2017-12-22T02:40:54.107Z,2.70
2017-12-22T02:43:23.138Z,2.93
2017-12-22T02:45:51.411Z,2.70
2017-12-22T02:48:19.716Z,2.63
2017-12-22T02:50:47.995Z,2.80
2017-12-22T02:53:16.324Z,2.67
2017-12-22T02:55:44.571Z,2.23
2017-12-22T02:58:12.832Z,2.50
2017-12-22T03:00:41.082Z,2.83
2017-12-22T03:03:09.334Z,3.37
2017-12-22T03:05:37.575Z,3.07
2017-12-22T03:08:05.891Z,2.87
2017-12-22T03:10:34.233Z,3.07
2017-12-22T03:13:02.573Z,2.50
2017-12-22T03:15:31.618Z,3.07
2017-12-22T03:17:59.960Z,2.90
2017-12-22T03:20:28.221Z,2.50
2017-12-22T03:22:56.468Z,2.63
2017-12-22T03:25:24.731Z,2.00
2017-12-22T03:27:53.772Z,2.20
2017-12-22T03:30:22.030Z,2.13
2017-12-22T03:32:51.284Z,2.13
2017-12-22T03:35:19.561Z,2.20
2017-12-22T03:37:47.803Z,1.87
2017-12-22T03:40:16.058Z,2.00
2017-12-22T03:42:44.306Z,2.17
2017-12-22T03:45:13.332Z,1.87
2017-12-22T03:47:41.584Z,2.07
2017-12-22T03:50:09.843Z,2.27
2017-12-22T03:52:38.101Z,1.80
2017-12-22T03:55:06.373Z,2.30
2017-12-22T03:57:35.369Z,2.10
2017-12-22T04:00:04.417Z,2.10
2017-12-22T04:02:32.779Z,2.03
2017-12-22T04:05:01.122Z,2.47
2017-12-22T04:07:29.430Z,2.23
2017-12-22T04:09:58.467Z,2.10
2017-12-22T04:12:27.477Z,2.27
2017-12-22T04:14:55.743Z,2.60
2017-12-22T04:17:24.768Z,2.17
2017-12-22T04:19:53.045Z,2.27
2017-12-22T04:22:22.048Z,2.60
2017-12-22T04:24:51.126Z,2.50
2017-12-22T04:27:19.477Z,2.40
2017-12-22T04:29:47.731Z,2.53
2017-12-22T04:32:16.753Z,3.03
2017-12-22T04:34:45.773Z,2.87
2017-12-22T04:37:14.012Z,2.47
2017-12-22T04:39:43.046Z,3.20
2017-12-22T04:42:12.051Z,3.07
2017-12-22T04:44:41.823Z,3.67
2017-12-22T04:47:10.066Z,3.50
2017-12-22T04:49:39.083Z,3.50
2017-12-22T04:52:08.083Z,3.60
2017-12-22T04:54:37.115Z,3.50
2017-12-22T04:57:05.376Z,3.70
2017-12-22T04:59:34.391Z,4.23
2017-12-22T05:02:02.724Z,4.30
2017-12-22T05:04:31.782Z,4.37
2017-12-22T05:07:00.168Z,4.43
2017-12-22T05:09:30.219Z,4.00
2017-12-22T05:11:58.459Z,4.17
2017-12-22T05:14:26.711Z,4.50
2017-12-22T05:16:55.021Z,4.50
2017-12-22T05:19:23.288Z,4.03
2017-12-22T05:21:51.532Z,4.70
2017-12-22T05:24:19.779Z,4.17
2017-12-22T05:26:48.061Z,4.23
2017-12-22T05:29:16.299Z,4.40
2017-12-22T05:31:45.338Z,4.40
2017-12-22T05:34:13.594Z,4.07
2017-12-22T05:36:41.847Z,4.87
2017-12-22T05:39:10.089Z,4.77
2017-12-22T05:41:39.114Z,4.67
2017-12-22T05:44:07.364Z,4.37
2017-12-22T05:46:35.640Z,4.00
2017-12-22T05:49:03.920Z,4.10
2017-12-22T05:51:32.263Z,4.17
2017-12-22T05:54:00.622Z,4.23
2017-12-22T05:56:29.739Z,4.20
2017-12-22T05:58:58.834Z,4.20
2017-12-22T06:01:28.083Z,4.27
2017-12-22T06:03:56.356Z,4.37
2017-12-22T06:06:24.625Z,4.03
2017-12-22T06:08:52.899Z,4.23
2017-12-22T06:11:22.124Z,3.63
2017-12-22T06:13:50.361Z,4.30
2017-12-22T06:16:18.637Z,3.77
2017-12-22T06:18:46.886Z,3.97
2017-12-22T06:21:15.138Z,4.30
2017-12-22T06:23:43.405Z,3.80
2017-12-22T06:26:11.666Z,3.90
2017-12-22T06:28:39.946Z,3.40
2017-12-22T06:31:08.192Z,4.07
2017-12-22T06:33:36.458Z,4.23
2017-12-22T06:36:04.715Z,3.73
2017-12-22T06:38:33.008Z,3.93
2017-12-22T06:41:02.157Z,3.47
2017-12-22T06:43:30.444Z,4.23
2017-12-22T06:45:58.714Z,3.90
2017-12-22T06:48:27.746Z,3.20
2017-12-22T06:50:55.984Z,4.20
2017-12-22T06:53:24.308Z,3.60
2017-12-22T06:55:52.613Z,3.83
2017-12-22T06:58:20.914Z,4.00
2017-12-22T07:00:49.186Z,3.97
2017-12-22T07:03:17.467Z,4.03
2017-12-22T07:05:45.716Z,3.83
2017-12-22T07:08:13.987Z,4.20
2017-12-22T07:10:43.083Z,4.10
2017-12-22T07:13:11.368Z,4.47
2017-12-22T07:15:39.623Z,4.20
2017-12-22T07:18:08.634Z,4.30
2017-12-22T07:20:36.902Z,3.90
2017-12-22T07:23:05.202Z,4.53
2017-12-22T07:25:34.221Z,4.20
2017-12-22T07:28:03.289Z,3.87
2017-12-22T07:30:32.319Z,4.27
2017-12-22T07:33:01.460Z,4.17
2017-12-22T07:35:29.762Z,3.77
2017-12-22T07:37:58.029Z,3.60
2017-12-22T07:40:26.270Z,3.27
2017-12-22T07:42:54.540Z,4.27
2017-12-22T07:45:22.780Z,3.20
2017-12-22T07:47:51.871Z,3.27
2017-12-22T07:50:20.153Z,3.80
2017-12-22T07:52:49.388Z,3.80
2017-12-22T07:55:20.700Z,3.50
2017-12-22T07:57:50.499Z,3.50
2017-12-22T08:00:18.766Z,4.17
2017-12-22T08:02:48.334Z,3.83
2017-12-22T08:05:16.599Z,3.83
2017-12-22T08:07:44.859Z,3.20
2017-12-22T08:10:13.908Z,3.63
2017-12-22T08:12:42.151Z,3.70
2017-12-22T08:15:10.412Z,3.40
2017-12-22T08:17:38.654Z,3.47
2017-12-22T08:20:06.923Z,3.60
2017-12-22T08:22:35.990Z,3.20
2017-12-22T08:25:04.268Z,3.60
2017-12-22T08:27:32.564Z,4.00
2017-12-22T08:30:00.928Z,3.40
2017-12-22T08:32:29.175Z,3.50
2017-12-22T08:34:58.258Z,3.47
2017-12-22T08:37:26.506Z,3.20
2017-12-22T08:39:54.759Z,3.13
2017-12-22T08:42:23.044Z,3.60
2017-12-22T08:44:51.331Z,3.53
2017-12-22T08:47:19.655Z,3.47
2017-12-22T08:49:47.927Z,3.03
2017-12-22T08:52:16.936Z,3.47
2017-12-22T08:54:45.968Z,3.53
2017-12-22T08:57:14.247Z,3.17
2017-12-22T08:59:43.270Z,3.40
2017-12-22T09:02:11.547Z,3.33
2017-12-22T09:04:40.592Z,3.33
2017-12-22T09:07:08.850Z,3.43
2017-12-22T09:09:37.871Z,3.30
2017-12-22T09:12:06.290Z,3.17
2017-12-22T09:14:34.631Z,3.20
2017-12-22T09:17:03.707Z,3.33
2017-12-22T09:19:32.006Z,3.43
2017-12-22T09:22:00.595Z,3.10
2017-12-22T09:24:28.898Z,3.17
2017-12-22T09:26:57.936Z,3.23
2017-12-22T09:29:26.174Z,3.20
2017-12-22T09:31:54.431Z,3.10
2017-12-22T09:34:22.671Z,3.43
2017-12-22T09:36:50.950Z,3.10
2017-12-22T09:39:19.199Z,3.87
2017-12-22T09:41:47.452Z,3.63
2017-12-22T09:44:15.717Z,4.87
2017-12-22T09:46:43.990Z,5.40
2017-12-22T09:49:12.246Z,4.83
2017-12-22T09:51:40.500Z,3.83
2017-12-22T09:54:10.248Z,3.73
2017-12-22T09:56:38.506Z,3.50
2017-12-22T09:59:06.763Z,3.40
2017-12-22T10:01:41.532Z,2.77
2017-12-22T10:04:09.791Z,2.97
2017-12-22T10:06:38.048Z,3.30
2017-12-22T10:09:07.108Z,3.30
2017-12-22T10:11:35.441Z,3.43
2017-12-22T10:14:03.806Z,4.70
2017-12-22T10:16:32.215Z,4.47
2017-12-22T10:19:01.428Z,3.40
2017-12-22T10:21:29.718Z,4.07
2017-12-22T10:23:57.991Z,3.80
2017-12-22T10:26:26.264Z,4.43
2017-12-22T10:28:54.511Z,4.10
2017-12-22T10:31:28.204Z,3.30
2017-12-22T10:33:57.209Z,3.57
2017-12-22T10:36:25.467Z,2.90
2017-12-22T10:38:53.713Z,2.90
2017-12-22T10:41:22.096Z,3.03
2017-12-22T10:43:50.384Z,2.80
2017-12-22T10:46:18.681Z,2.77
2017-12-22T10:48:46.935Z,2.50
2017-12-22T10:51:17.856Z,2.57
2017-12-22T10:53:46.115Z,2.43
2017-12-22T10:56:14.354Z,2.50
2017-12-22T10:58:43.398Z,2.43
2017-12-22T11:01:11.630Z,2.30
2017-12-22T11:03:39.896Z,2.20
2017-12-22T11:06:08.165Z,2.07
2017-12-22T11:08:36.419Z,2.20
2017-12-22T11:11:05.460Z,2.10
2017-12-22T11:13:33.843Z,2.10
2017-12-22T11:16:02.202Z,2.00
2017-12-22T11:18:31.247Z,1.83
2017-12-22T11:20:59.547Z,2.17
2017-12-22T11:23:27.830Z,2.23
2017-12-22T11:25:56.078Z,2.00
2017-12-22T11:28:25.109Z,2.30
2017-12-22T11:30:54.331Z,2.23
2017-12-22T11:33:22.601Z,2.07
2017-12-22T11:35:51.603Z,2.70
2017-12-22T11:38:20.699Z,2.53
2017-12-22T11:40:49.741Z,2.43
2017-12-22T11:43:18.011Z,2.70
2017-12-22T11:45:47.850Z,2.57
2017-12-22T11:48:16.148Z,2.50
2017-12-22T11:50:44.392Z,2.83
2017-12-22T11:53:12.668Z,2.30
2017-12-22T11:55:40.924Z,2.70
2017-12-22T11:58:09.192Z,2.97
2017-12-22T12:00:37.951Z,2.93
2017-12-22T12:03:06.222Z,2.93
2017-12-22T12:05:34.487Z,2.87
2017-12-22T12:08:02.841Z,2.80
2017-12-22T12:10:31.878Z,3.80
2017-12-22T12:13:00.178Z,3.30
2017-12-22T12:15:28.435Z,2.93
2017-12-22T12:17:57.470Z,2.60
2017-12-22T12:20:25.722Z,1.93
2017-12-22T12:22:54.776Z,2.33
2017-12-22T12:25:23.013Z,1.80
2017-12-22T12:27:52.058Z,1.77
2017-12-22T12:30:20.361Z,1.83
2017-12-22T12:32:48.641Z,2.13
2017-12-22T12:35:16.911Z,2.13
2017-12-22T12:37:46.128Z,1.20
2017-12-22T12:40:15.450Z,1.30
2017-12-22T12:42:43.698Z,1.77
2017-12-22T12:45:12.013Z,2.20
2017-12-22T12:47:41.010Z,1.20
2017-12-22T12:50:10.961Z,2.03
2017-12-22T12:52:39.228Z,1.60
2017-12-22T12:55:08.258Z,1.40
2017-12-22T12:57:36.503Z,1.80
2017-12-22T13:00:04.779Z,1.93
2017-12-22T13:02:33.122Z,1.73
2017-12-22T13:05:01.463Z,2.50
2017-12-22T13:07:29.796Z,4.33
2017-12-22T13:09:58.056Z,2.70
2017-12-22T13:12:26.303Z,2.50
2017-12-22T13:14:54.558Z,2.80
2017-12-22T13:17:23.574Z,2.50
2017-12-22T13:19:51.875Z,2.40
2017-12-22T13:22:20.135Z,3.47
2017-12-22T13:24:49.187Z,3.27
2017-12-22T13:27:17.439Z,2.30
2017-12-22T13:29:45.720Z,2.40
2017-12-22T13:32:14.731Z,2.80
2017-12-22T13:34:43.756Z,2.63
2017-12-22T13:37:12.005Z,2.93
2017-12-22T13:39:40.387Z,2.97
2017-12-22T13:42:08.624Z,3.10
2017-12-22T13:44:36.894Z,3.13
2017-12-22T13:47:05.931Z,2.70
2017-12-22T13:49:34.230Z,2.23
2017-12-22T13:52:02.567Z,2.50
2017-12-22T13:54:31.679Z,1.97
2017-12-22T13:57:00.739Z,2.57
2017-12-22T13:59:28.996Z,1.93
2017-12-22T14:01:57.265Z,2.17
2017-12-22T14:04:26.276Z,2.00
2017-12-22T14:06:55.316Z,2.10
2017-12-22T14:09:23.571Z,2.00
2017-12-22T14:11:52.591Z,1.80
2017-12-22T14:14:21.600Z,1.53
2017-12-22T14:16:49.869Z,1.50
2017-12-22T14:19:18.939Z,1.40
2017-12-22T14:21:47.224Z,1.60
2017-12-22T14:24:15.475Z,1.57
2017-12-22T14:26:43.743Z,1.57
2017-12-22T14:29:12.759Z,1.47
2017-12-22T14:31:41.770Z,1.70
2017-12-22T14:34:10.791Z,1.43
2017-12-22T14:36:39.051Z,1.50
2017-12-22T14:39:08.063Z,1.60
2017-12-22T14:41:37.115Z,1.80
2017-12-22T14:44:06.147Z,1.67
2017-12-22T14:46:34.420Z,1.87
2017-12-22T14:49:02.714Z,2.00
2017-12-22T14:51:31.043Z,2.10
2017-12-22T14:54:00.137Z,1.60
2017-12-22T14:56:28.468Z,2.10
2017-12-22T14:58:56.711Z,2.60
2017-12-22T15:01:24.980Z,2.80
2017-12-22T15:03:53.233Z,1.77
2017-12-22T15:06:21.492Z,1.73
2017-12-22T15:08:50.531Z,1.50
2017-12-22T15:11:18.831Z,1.63
2017-12-22T15:13:47.127Z,1.73
2017-12-22T15:16:15.387Z,1.63
2017-12-22T15:18:44.399Z,1.97
2017-12-22T15:21:12.660Z,2.00
2017-12-22T15:23:40.908Z,1.67
2017-12-22T15:26:09.168Z,1.40
2017-12-22T15:28:39.219Z,2.20
2017-12-22T15:31:07.474Z,1.60
2017-12-22T15:33:36.560Z,1.70
2017-12-22T15:36:04.926Z,2.33
2017-12-22T15:38:33.273Z,2.03
2017-12-22T15:41:02.316Z,2.10
2017-12-22T15:43:30.667Z,1.90
2017-12-22T15:45:58.967Z,1.93
2017-12-22T15:48:28.053Z,1.90
2017-12-22T15:50:57.067Z,1.87
2017-12-22T15:53:26.098Z,2.13
2017-12-22T15:55:54.335Z,2.40
2017-12-22T15:58:22.606Z,2.23
2017-12-22T16:00:50.903Z,2.30
2017-12-22T16:03:19.228Z,1.90
2017-12-22T16:05:47.501Z,2.40
2017-12-22T16:08:15.771Z,2.30
2017-12-22T16:10:44.023Z,2.03
2017-12-22T16:13:12.315Z,2.13
2017-12-22T16:15:40.554Z,2.60
2017-12-22T16:18:08.866Z,2.43
2017-12-22T16:20:37.100Z,2.17
2017-12-22T16:23:05.407Z,2.70
2017-12-22T16:25:33.780Z,2.23
2017-12-22T16:28:02.192Z,2.50
2017-12-22T16:30:30.516Z,2.60
2017-12-22T16:32:59.536Z,2.60
2017-12-22T16:35:27.778Z,2.77
2017-12-22T16:37:56.051Z,2.30
2017-12-22T16:40:24.294Z,2.30
2017-12-22T16:42:53.336Z,2.27
2017-12-22T16:45:21.611Z,2.33
2017-12-22T16:47:49.925Z,2.50
2017-12-22T16:50:18.271Z,3.17
2017-12-22T16:52:47.324Z,2.80
2017-12-22T16:55:15.614Z,2.27
2017-12-22T16:57:43.858Z,2.40
2017-12-22T17:00:12.879Z,2.57
2017-12-22T17:02:41.140Z,2.50
2017-12-22T17:05:10.219Z,2.50
2017-12-22T17:07:38.505Z,2.60
2017-12-22T17:10:06.873Z,2.00
2017-12-22T17:12:35.256Z,2.40
2017-12-22T17:15:03.618Z,2.50
2017-12-22T17:17:32.805Z,2.20
2017-12-22T17:20:01.138Z,2.07
2017-12-22T17:22:29.423Z,2.27
2017-12-22T17:24:57.755Z,2.83
2017-12-22T17:27:25.998Z,2.80
2017-12-22T17:29:55.087Z,2.33
2017-12-22T17:32:23.327Z,2.57
2017-12-22T17:34:51.670Z,2.63
2017-12-22T17:37:20.758Z,3.00
2017-12-22T17:39:49.096Z,2.70
2017-12-22T17:42:17.414Z,2.70
2017-12-22T17:44:45.691Z,2.50
2017-12-22T17:47:13.979Z,2.90
2017-12-22T17:49:42.234Z,2.70
2017-12-22T17:52:11.894Z,2.63
2017-12-22T17:54:40.194Z,2.57
2017-12-22T17:57:08.431Z,2.53
2017-12-22T17:59:37.471Z,2.33
2017-12-22T18:02:05.792Z,2.40
2017-12-22T18:04:34.178Z,2.20
2017-12-22T18:07:02.504Z,2.67
2017-12-22T18:09:31.643Z,2.27
2017-12-22T18:11:59.976Z,2.70
2017-12-22T18:14:28.265Z,2.50
2017-12-22T18:16:56.562Z,3.87
2017-12-22T18:19:24.810Z,3.10
2017-12-22T18:21:53.106Z,3.30
2017-12-22T18:24:21.434Z,4.27
2017-12-22T18:26:49.733Z,3.90
2017-12-22T18:29:18.838Z,4.93
2017-12-22T18:31:47.143Z,5.30
2017-12-22T18:34:16.202Z,4.57
2017-12-22T18:36:44.537Z,2.73
2017-12-22T18:39:13.605Z,2.80
2017-12-22T18:41:41.907Z,3.00
2017-12-22T18:44:10.966Z,3.10
2017-12-22T18:46:39.274Z,2.90
2017-12-22T18:49:07.507Z,3.17
2017-12-22T18:51:35.898Z,2.80
2017-12-22T18:54:04.225Z,2.80
2017-12-22T18:56:33.785Z,2.70
2017-12-22T18:59:02.185Z,2.73
2017-12-22T19:01:31.414Z,3.30
2017-12-22T19:03:59.809Z,2.93
2017-12-22T19:06:28.117Z,3.13
2017-12-22T19:08:57.166Z,6.00
2017-12-22T19:11:25.426Z,6.17
2017-12-22T19:13:53.718Z,9.70
2017-12-22T19:16:22.015Z,3.60
2017-12-22T19:18:50.400Z,4.27
2017-12-22T19:21:18.770Z,5.60
2017-12-22T19:23:47.835Z,6.07
2017-12-22T19:26:16.140Z,5.53
2017-12-22T19:28:44.516Z,3.70
2017-12-22T19:31:12.811Z,3.50
2017-12-22T19:33:41.102Z,3.50
2017-12-22T19:36:09.428Z,3.53
2017-12-22T19:38:38.474Z,3.10
2017-12-22T19:41:06.791Z,3.10
2017-12-22T19:43:35.087Z,3.23
2017-12-22T19:46:03.396Z,4.03
2017-12-22T19:48:32.495Z,3.63
2017-12-22T19:51:00.829Z,4.00
2017-12-22T19:53:29.082Z,3.73
2017-12-22T19:55:58.163Z,3.33
2017-12-22T19:58:26.458Z,3.53
2017-12-22T20:00:55.395Z,3.67
2017-12-22T20:03:28.163Z,3.17
2017-12-22T20:05:56.450Z,3.80
2017-12-22T20:08:24.803Z,3.00
2017-12-22T20:10:53.087Z,3.27
2017-12-22T20:13:21.395Z,3.33
2017-12-22T20:15:49.701Z,3.70
2017-12-22T20:18:18.004Z,3.50
2017-12-22T20:20:46.290Z,4.00
2017-12-22T20:23:14.616Z,4.20
2017-12-22T20:25:43.702Z,4.20
2017-12-22T20:28:12.018Z,4.00
2017-12-22T20:30:41.074Z,5.00
2017-12-22T20:33:09.387Z,5.30
2017-12-22T20:35:37.670Z,5.63
2017-12-22T20:38:05.990Z,5.53
2017-12-22T20:40:35.062Z,6.57
2017-12-22T20:43:03.366Z,5.50
2017-12-22T20:45:31.689Z,4.83
2017-12-22T20:48:00.026Z,3.83
2017-12-22T20:50:28.318Z,4.27
2017-12-22T20:52:56.630Z,4.57
2017-12-22T20:55:24.922Z,3.60
2017-12-22T20:57:53.987Z,4.50
2017-12-22T21:00:22.318Z,4.60
2017-12-22T21:02:50.645Z,4.47
2017-12-22T21:05:18.950Z,3.87
2017-12-22T21:07:47.323Z,3.90
2017-12-22T21:10:15.619Z,3.90
2017-12-22T21:12:43.923Z,4.07
2017-12-22T21:15:12.306Z,3.23
2017-12-22T21:17:40.610Z,3.40
2017-12-22T21:20:08.909Z,3.00
2017-12-22T21:22:37.982Z,3.03
2017-12-22T21:25:06.302Z,3.43
2017-12-22T21:27:34.585Z,2.87
2017-12-22T21:30:02.893Z,3.10
2017-12-22T21:32:31.246Z,3.10
2017-12-22T21:34:59.576Z,3.33
2017-12-22T21:37:27.874Z,3.07
2017-12-22T21:39:56.178Z,2.87
2017-12-22T21:42:25.183Z,3.37
2017-12-22T21:44:54.258Z,3.33
2017-12-22T21:47:22.527Z,3.63
2017-12-22T21:49:50.855Z,3.50
2017-12-22T21:52:19.142Z,3.30
2017-12-22T21:54:48.205Z,3.40
2017-12-22T21:57:17.271Z,3.93
2017-12-22T21:59:45.582Z,4.00
2017-12-22T22:02:14.646Z,4.53
2017-12-22T22:04:42.956Z,3.97
2017-12-22T22:07:11.251Z,4.10
2017-12-22T22:09:39.603Z,4.00
2017-12-22T22:12:07.889Z,4.37
2017-12-22T22:14:36.190Z,3.83
2017-12-22T22:17:04.546Z,4.50
2017-12-22T22:19:32.907Z,4.23
2017-12-22T22:22:01.996Z,4.67
2017-12-22T22:24:30.322Z,4.43
2017-12-22T22:26:58.615Z,4.20
2017-12-22T22:29:26.922Z,4.13
2017-12-22T22:31:55.226Z,3.90
2017-12-22T22:34:23.621Z,3.73
2017-12-22T22:36:51.947Z,3.97
2017-12-22T22:39:21.039Z,4.13
2017-12-22T22:41:49.407Z,3.87
2017-12-22T22:44:17.706Z,4.27
2017-12-22T22:46:46.006Z,4.67
2017-12-22T22:49:15.075Z,4.70
2017-12-22T22:51:43.358Z,4.90
2017-12-22T22:54:11.654Z,4.70
2017-12-22T22:56:39.941Z,4.60
2017-12-22T22:59:08.242Z,4.20
2017-12-22T23:01:36.532Z,4.63
2017-12-22T23:04:04.861Z,4.27
2017-12-22T23:06:33.228Z,4.87
2017-12-22T23:09:01.509Z,4.43
2017-12-22T23:11:29.784Z,4.87
2017-12-22T23:13:58.075Z,4.97
2017-12-22T23:16:26.370Z,4.50
2017-12-22T23:18:54.599Z,5.03
2017-12-22T23:21:22.875Z,5.07
2017-12-22T23:23:51.232Z,4.30
2017-12-22T23:26:19.627Z,4.43
2017-12-22T23:28:47.922Z,4.60
2017-12-22T23:31:16.227Z,5.00
2017-12-22T23:33:44.465Z,4.57
2017-12-22T23:36:13.531Z,5.07
2017-12-22T23:38:42.895Z,5.33
2017-12-22T23:41:11.205Z,5.40
2017-12-22T23:43:39.494Z,5.37
2017-12-22T23:46:07.864Z,4.97
2017-12-22T23:48:36.157Z,5.57
2017-12-22T23:51:04.478Z,4.97
2017-12-22T23:53:32.849Z,5.20
2017-12-22T23:56:01.164Z,4.73
2017-12-22T23:58:29.515Z,4.70
